Terminal Aerodrome Forecast
Issued by NWS Corpus Christi, TX

Home | Current Version | Previous Version | Text Only | Print | Product List | Glossary On
Versions: 1 2 3 4 5 6 7 8 9 10 11 12 13 14 15 16 17
000
FTUS44 KCRP 201329 AAA
TAFCRP
TAF AMD
KCRP 201329Z 2013/2112 VRB03KT 3/4SM BR OVC003
      TEMPO 2013/2015 1/4SM -DZ FG VV003
     FM201600 VRB02KT 2SM BR OVC005
     FM201800 18006KT P6SM OVC007
     FM202200 15008KT P6SM BKN007 OVC012
     FM210300 13009KT 4SM BR OVC005
     FM210700 16010KT 1SM BR OVC003=

USA.gov is the U.S. government's official web portal to all federal, state and local government web resources and services.